Time;durP1;ratioP1;P1;durP2;ratioP2;P2;SDS_P1;SDS_P2;PMS_P1;PMS_P2;Temp;Humidity;BMP_temperature;BMP_pressure;BME280_temperature;BME280_humidity;BME280_pressure;Samples;Min_cycle;Max_cycle;Signal;HPM_P1;HPM_P2
2022/01/04 00:00:03;;;;;;;;;2.00;2.00;;;;;14.63;71.84;99921.84;5022589;28;45657;-63
2022/01/04 00:02:29;;;;;;;;;1.00;1.00;;;;;14.64;71.84;99911.94;5023982;28;46522;-64
2022/01/04 00:04:54;;;;;;;;;1.75;1.00;;;;;14.65;71.98;99900.25;5020983;28;45476;-64
2022/01/04 00:07:19;;;;;;;;;1.75;1.50;;;;;14.68;72.01;99908.09;5022901;28;45331;-64
2022/01/04 00:09:45;;;;;;;;;1.00;1.00;;;;;14.71;71.88;99897.16;5022740;28;45570;-64
2022/01/04 00:14:56;;;;;;;;;2.00;2.00;;;;;14.70;71.83;99876.66;5015233;28;45475;-64
2022/01/04 00:17:22;;;;;;;;;1.50;1.25;;;;;14.71;71.71;99872.13;5022367;28;45491;-64
2022/01/04 00:19:47;;;;;;;;;1.00;1.00;;;;;14.70;71.84;99870.41;5030438;28;45541;-63
2022/01/04 00:22:13;;;;;;;;;1.00;1.00;;;;;14.68;71.83;99866.94;5021947;28;45388;-64
2022/01/04 00:24:38;;;;;;;;;1.00;1.00;;;;;14.67;71.95;99858.03;5019305;28;45387;-64
2022/01/04 00:27:04;;;;;;;;;2.00;2.00;;;;;14.72;71.90;99841.63;5022176;28;45282;-64
2022/01/04 00:29:30;;;;;;;;;0.75;0.75;;;;;14.69;71.92;99840.00;5022485;28;45256;-64
2022/01/04 00:31:55;;;;;;;;;0.75;0.75;;;;;14.64;71.52;99829.53;5021955;28;45295;-64
2022/01/04 00:34:20;;;;;;;;;0.00;0.00;;;;;14.68;71.67;99815.91;5026392;28;45285;-64
2022/01/04 00:36:46;;;;;;;;;0.00;0.00;;;;;14.63;71.84;99816.19;5027391;28;45435;-64
2022/01/04 00:39:11;;;;;;;;;1.00;0.00;;;;;14.64;72.13;99813.41;5025357;28;45563;-64
2022/01/04 00:41:36;;;;;;;;;1.00;1.00;;;;;14.67;71.78;99800.75;5028794;28;46174;-64
2022/01/04 00:44:02;;;;;;;;;0.00;0.00;;;;;14.63;71.93;99792.03;5017286;28;45438;-64
2022/01/04 00:46:27;;;;;;;;;1.75;1.75;;;;;14.62;71.69;99793.88;5014086;28;45270;-64
2022/01/04 00:49:11;;;;;;;;;0.00;0.00;;;;;14.62;71.99;99783.13;5019156;28;45432;-64
2022/01/04 00:51:42;;;;;;;;;0.00;0.00;;;;;14.58;72.29;99778.88;5019202;28;45487;-64
2022/01/04 00:54:08;;;;;;;;;0.00;0.00;;;;;14.61;71.91;99769.78;5021856;28;45239;-64
2022/01/04 00:56:33;;;;;;;;;0.25;0.25;;;;;14.63;72.07;99762.47;5021807;28;45230;-64
2022/01/04 00:58:59;;;;;;;;;0.00;0.00;;;;;14.64;71.87;99766.91;5021911;28;45380;-64
2022/01/04 01:01:25;;;;;;;;;0.00;0.00;;;;;14.68;71.97;99754.13;5021729;28;45297;-64
2022/01/04 01:03:51;;;;;;;;;1.00;0.00;;;;;14.67;71.64;99752.41;5020779;28;45262;-64
2022/01/04 01:06:17;;;;;;;;;0.00;0.00;;;;;14.68;71.97;99754.97;5022046;28;45212;-64
2022/01/04 01:08:43;;;;;;;;;1.00;0.00;;;;;14.63;72.14;99731.13;5003778;28;45880;-64
2022/01/04 01:11:09;;;;;;;;;0.00;0.00;;;;;14.65;72.04;99728.34;5019661;28;45483;-64
2022/01/04 01:13:35;;;;;;;;;0.00;0.00;;;;;14.62;72.18;99721.34;5020984;28;45454;-64
2022/01/04 01:16:01;;;;;;;;;0.00;0.00;;;;;14.61;71.91;99722.28;5021826;28;45564;-64
2022/01/04 01:18:26;;;;;;;;;0.00;0.00;;;;;14.59;72.04;99721.53;5024314;28;45378;-64
2022/01/04 01:20:52;;;;;;;;;1.00;0.00;;;;;14.61;71.95;99710.69;5029736;28;46048;-64
2022/01/04 01:23:19;;;;;;;;;0.00;0.00;;;;;14.61;71.98;99706.19;5021432;28;45497;-64
2022/01/04 01:25:45;;;;;;;;;0.00;0.00;;;;;14.61;71.92;99708.88;5017083;28;45237;-63
2022/01/04 01:28:12;;;;;;;;;0.00;0.00;;;;;14.60;72.27;99698.22;5004585;28;45527;-64
2022/01/04 01:30:40;;;;;;;;;0.00;0.00;;;;;14.63;71.89;99704.28;5037370;28;46175;-64
2022/01/04 01:33:06;;;;;;;;;0.00;0.00;;;;;14.64;72.37;99692.56;5026615;28;45360;-64
2022/01/04 01:35:33;;;;;;;;;0.00;0.00;;;;;14.63;72.21;99688.16;5020947;28;45219;-63
2022/01/04 01:37:58;;;;;;;;;0.00;0.00;;;;;14.64;72.07;99686.34;5021260;28;45508;-64
2022/01/04 01:40:24;;;;;;;;;0.00;0.00;;;;;14.64;72.04;99680.97;5020956;28;46241;-64
2022/01/04 01:42:49;;;;;;;;;0.00;0.00;;;;;14.64;72.09;99672.91;5021261;28;45363;-64
2022/01/04 01:45:16;;;;;;;;;0.00;0.00;;;;;14.66;72.30;99670.97;5012930;28;45394;-64
2022/01/04 01:47:44;;;;;;;;;0.00;0.00;;;;;14.69;72.26;99664.53;5031385;28;45475;-63
2022/01/04 01:50:11;;;;;;;;;0.00;0.00;;;;;14.68;71.82;99652.06;5018337;28;46189;-63
2022/01/04 01:52:38;;;;;;;;;0.00;0.00;;;;;14.68;72.17;99650.22;5021156;28;45370;-64
2022/01/04 01:55:04;;;;;;;;;1.00;0.00;;;;;14.65;72.25;99637.03;5012932;28;45518;-64
2022/01/04 01:57:30;;;;;;;;;0.00;0.00;;;;;14.70;71.88;99639.38;5020750;28;45298;-64
2022/01/04 01:59:56;;;;;;;;;0.00;0.00;;;;;14.71;72.06;99635.75;5020553;28;45301;-64
2022/01/04 02:02:21;;;;;;;;;0.00;0.00;;;;;14.74;72.14;99639.09;5020755;28;45427;-64
2022/01/04 02:04:46;;;;;;;;;0.75;0.00;;;;;14.76;72.04;99633.63;5020926;28;45135;-64
2022/01/04 02:07:12;;;;;;;;;0.00;0.00;;;;;14.77;72.06;99630.81;5020492;28;45226;-64
2022/01/04 02:09:41;;;;;;;;;0.00;0.00;;;;;14.79;71.68;99634.25;5020378;28;46046;-64
2022/01/04 02:12:08;;;;;;;;;0.00;0.00;;;;;14.82;71.71;99631.38;5020732;28;45647;-64
2022/01/04 02:14:33;;;;;;;;;0.00;0.00;;;;;14.81;71.87;99609.97;5014199;28;45372;-64
2022/01/04 02:16:59;;;;;;;;;0.00;0.00;;;;;14.84;72.00;99617.84;5018700;28;45317;-64
2022/01/04 02:19:24;;;;;;;;;1.00;0.00;;;;;14.82;71.92;99601.81;5030882;28;46440;-64
2022/01/04 02:21:50;;;;;;;;;0.00;0.00;;;;;14.80;72.16;99600.19;5022214;28;45155;-64
2022/01/04 02:24:15;;;;;;;;;0.75;0.00;;;;;14.80;71.97;99598.38;5020112;28;45824;-64
2022/01/04 02:26:41;;;;;;;;;0.00;0.00;;;;;14.79;72.11;99595.81;5020373;28;45313;-64
2022/01/04 02:29:07;;;;;;;;;0.00;0.00;;;;;14.82;71.99;99590.22;5020452;28;45252;-64
2022/01/04 02:31:34;;;;;;;;;0.00;0.00;;;;;14.82;72.19;99591.06;5020497;28;45464;-64
2022/01/04 02:33:59;;;;;;;;;3.75;3.75;;;;;14.84;71.59;99582.91;5018818;28;45416;-64
2022/01/04 02:36:24;;;;;;;;;6.50;4.50;;;;;14.83;71.47;99575.81;5026960;28;45313;-64
2022/01/04 02:38:53;;;;;;;;;3.25;3.25;;;;;14.84;71.42;99563.25;5031406;28;45565;-64
2022/01/04 02:41:19;;;;;;;;;6.00;6.00;;;;;14.73;71.04;99553.22;5032408;28;45467;-64
2022/01/04 02:43:44;;;;;;;;;5.00;4.50;;;;;14.71;70.93;99552.47;5020268;28;45257;-64
2022/01/04 02:46:10;;;;;;;;;4.00;4.00;;;;;14.66;71.39;99551.94;5011391;28;45266;-64
2022/01/04 02:48:43;;;;;;;;;3.00;3.00;;;;;14.64;71.17;99544.00;5019450;28;45313;-64
2022/01/04 02:51:09;;;;;;;;;3.75;3.75;;;;;14.66;71.42;99541.19;5020076;28;45483;-64
2022/01/04 02:53:34;;;;;;;;;3.00;3.00;;;;;14.60;70.79;99535.28;5018749;28;45398;-64
2022/01/04 02:55:59;;;;;;;;;6.50;3.00;;;;;14.60;71.23;99531.72;5019506;28;45399;-64
2022/01/04 02:58:25;;;;;;;;;4.00;4.00;;;;;14.59;71.12;99519.28;5019884;28;45340;-64
2022/01/04 03:00:50;;;;;;;;;2.25;2.25;;;;;14.59;71.11;99520.13;5019928;28;45268;-64
2022/01/04 03:03:15;;;;;;;;;4.50;3.50;;;;;14.58;71.06;99509.44;5018823;28;45334;-64
2022/01/04 03:05:41;;;;;;;;;2.75;2.75;;;;;14.59;70.59;99503.16;5019408;28;45517;-64
2022/01/04 03:08:06;;;;;;;;;5.00;5.00;;;;;14.58;70.58;99504.97;5019861;28;45232;-64
2022/01/04 03:10:32;;;;;;;;;3.25;3.00;;;;;14.61;70.15;99502.06;5019392;28;45509;-64
2022/01/04 03:12:57;;;;;;;;;5.75;4.00;;;;;14.61;70.20;99506.59;5025168;28;45201;-64
2022/01/04 03:15:23;;;;;;;;;2.50;2.50;;;;;14.58;70.22;99496.91;5014354;28;45447;-64
2022/01/04 03:17:48;;;;;;;;;3.50;3.00;;;;;14.58;69.94;99496.03;5019159;28;46485;-64
2022/01/04 03:20:13;;;;;;;;;2.00;2.00;;;;;14.56;70.13;99493.44;5019203;28;45317;-64
2022/01/04 03:22:39;;;;;;;;;4.00;4.00;;;;;14.55;70.32;99474.75;5020038;28;45270;-64
2022/01/04 03:25:05;;;;;;;;;2.50;2.50;;;;;14.50;69.89;99484.94;5017270;28;45428;-64
2022/01/04 03:27:31;;;;;;;;;2.25;2.00;;;;;14.42;69.79;99480.13;5019674;28;46100;-64
2022/01/04 03:29:57;;;;;;;;;4.00;3.00;;;;;14.38;69.89;99471.44;5033099;28;45374;-64
2022/01/04 03:32:22;;;;;;;;;2.50;2.50;;;;;14.40;70.02;99466.81;5025282;28;45296;-64
2022/01/04 03:34:48;;;;;;;;;3.75;3.00;;;;;14.41;69.72;99473.03;5025770;28;45585;-64
2022/01/04 03:37:13;;;;;;;;;2.75;2.25;;;;;14.37;69.73;99461.63;5019618;28;45304;-64
2022/01/04 03:39:39;;;;;;;;;2.00;1.75;;;;;14.35;69.99;99450.16;5019567;28;45194;-64
2022/01/04 03:42:05;;;;;;;;;11.50;11.50;;;;;14.38;69.65;99459.81;5019212;28;45348;-64
2022/01/04 03:44:30;;;;;;;;;3.25;3.00;;;;;14.32;69.52;99441.47;5026596;28;45221;-63
2022/01/04 03:46:56;;;;;;;;;2.50;2.00;;;;;14.24;69.83;99442.81;5020612;28;45724;-64
2022/01/04 03:49:23;;;;;;;;;3.00;3.00;;;;;14.21;69.66;99453.75;5017956;28;45351;-63
2022/01/04 03:51:49;;;;;;;;;3.25;2.25;;;;;14.13;69.70;99447.19;5019150;28;45713;-64
2022/01/04 03:54:15;;;;;;;;;1.25;1.25;;;;;14.08;69.65;99447.50;5019211;28;45502;-64
2022/01/04 03:56:41;;;;;;;;;1.00;1.00;;;;;14.03;69.40;99438.91;5019058;28;45490;-63
2022/01/04 03:59:06;;;;;;;;;1.00;1.00;;;;;14.00;70.04;99444.47;5002480;28;45349;-64
2022/01/04 04:01:31;;;;;;;;;1.00;1.00;;;;;13.99;69.63;99450.81;5018106;28;45429;-64
2022/01/04 04:03:57;;;;;;;;;0.00;0.00;;;;;14.00;69.67;99455.22;5017530;28;45544;-64
2022/01/04 04:06:22;;;;;;;;;1.50;0.25;;;;;13.96;70.00;99464.44;5019281;28;45364;-64
2022/01/04 04:08:48;;;;;;;;;0.50;0.50;;;;;13.95;69.79;99451.97;5018595;28;45302;-64
2022/01/04 04:11:14;;;;;;;;;1.50;1.00;;;;;13.94;69.46;99455.66;5001161;28;45337;-64
2022/01/04 04:13:39;;;;;;;;;1.00;1.00;;;;;13.82;69.25;99452.81;5020525;28;45166;-64
2022/01/04 04:16:05;;;;;;;;;1.00;1.00;;;;;13.75;69.41;99448.81;5021279;28;47291;-64
2022/01/04 04:18:30;;;;;;;;;0.00;0.00;;;;;13.65;69.21;99453.06;5022100;28;45816;-63
2022/01/04 04:20:56;;;;;;;;;0.00;0.00;;;;;13.55;69.68;99455.50;5021575;28;45336;-64
2022/01/04 04:23:21;;;;;;;;;0.00;0.00;;;;;13.53;69.71;99462.75;5024501;28;45652;-64
2022/01/04 04:25:47;;;;;;;;;0.00;0.00;;;;;13.47;69.60;99464.03;5026655;28;46208;-64
2022/01/04 04:28:12;;;;;;;;;0.00;0.00;;;;;13.40;69.76;99461.81;5022519;28;45379;-64
2022/01/04 04:30:38;;;;;;;;;0.00;0.00;;;;;13.38;69.84;99459.28;5016497;28;45669;-64
2022/01/04 04:33:03;;;;;;;;;0.00;0.00;;;;;13.35;69.62;99459.47;5023752;28;45664;-64
2022/01/04 04:35:30;;;;;;;;;0.00;0.00;;;;;13.32;69.80;99456.97;5017446;28;46989;-64
2022/01/04 04:37:59;;;;;;;;;0.00;0.00;;;;;13.26;69.47;99465.38;5012989;28;45420;-63
2022/01/04 04:40:25;;;;;;;;;0.00;0.00;;;;;13.22;69.89;99462.03;5013790;28;45385;-63
2022/01/04 04:42:50;;;;;;;;;0.00;0.00;;;;;13.24;69.73;99460.09;5022245;28;45237;-64
2022/01/04 04:45:16;;;;;;;;;0.00;0.00;;;;;13.23;70.13;99468.25;5028764;28;45503;-63
2022/01/04 04:47:41;;;;;;;;;0.00;0.00;;;;;13.20;69.62;99469.31;5021441;28;45452;-64
2022/01/04 04:50:07;;;;;;;;;0.00;0.00;;;;;13.14;69.41;99470.53;5019768;28;45431;-64
2022/01/04 04:52:32;;;;;;;;;0.00;0.00;;;;;13.11;70.07;99480.59;5023704;28;45459;-64
2022/01/04 04:54:58;;;;;;;;;0.00;0.00;;;;;13.12;69.87;99477.81;5003845;28;47792;-64
2022/01/04 04:57:23;;;;;;;;;0.00;0.00;;;;;13.11;69.77;99475.25;5021715;28;45462;-64
2022/01/04 04:59:49;;;;;;;;;0.00;0.00;;;;;12.98;69.60;99478.69;5016890;28;45569;-64
2022/01/04 05:02:14;;;;;;;;;0.00;0.00;;;;;12.95;69.53;99481.56;5011311;28;45686;-63
2022/01/04 05:04:39;;;;;;;;;0.00;0.00;;;;;12.93;69.76;99496.00;5018986;28;46143;-63
2022/01/04 05:07:05;;;;;;;;;0.00;0.00;;;;;12.89;69.99;99489.97;5021536;28;45299;-63
2022/01/04 05:09:30;;;;;;;;;0.00;0.00;;;;;12.82;69.89;99479.75;5020999;28;45357;-63
2022/01/04 05:11:56;;;;;;;;;0.00;0.00;;;;;12.82;69.77;99485.97;5023474;28;45679;-64
2022/01/04 05:14:22;;;;;;;;;0.00;0.00;;;;;12.83;70.25;99489.50;5021292;28;46199;-63
2022/01/04 05:16:47;;;;;;;;;0.00;0.00;;;;;12.82;69.91;99493.16;5021392;28;45365;-64
2022/01/04 05:19:13;;;;;;;;;0.00;0.00;;;;;12.82;70.04;99496.69;5018663;28;45376;-64
2022/01/04 05:21:39;;;;;;;;;0.00;0.00;;;;;12.84;70.05;99504.63;5029249;28;45694;-64
2022/01/04 05:24:05;;;;;;;;;0.00;0.00;;;;;12.81;69.73;99499.44;5024173;28;45241;-63
2022/01/04 05:26:32;;;;;;;;;0.00;0.00;;;;;12.78;70.10;99503.19;5006639;28;45393;-63
2022/01/04 05:28:58;;;;;;;;;0.00;0.00;;;;;12.79;70.03;99505.75;5017608;28;45310;-63
2022/01/04 05:31:23;;;;;;;;;0.00;0.00;;;;;12.76;69.67;99505.06;5020672;28;45464;-63
2022/01/04 05:33:49;;;;;;;;;0.00;0.00;;;;;12.73;70.03;99515.97;5020920;28;46003;-63
2022/01/04 05:36:14;;;;;;;;;0.00;0.00;;;;;12.72;70.13;99509.75;5021076;28;45234;-63
2022/01/04 05:38:40;;;;;;;;;0.00;0.00;;;;;12.68;70.04;99499.31;5020083;28;46158;-63
2022/01/04 05:41:06;;;;;;;;;0.00;0.00;;;;;12.68;70.01;99502.00;5002945;28;45596;-64
2022/01/04 05:43:31;;;;;;;;;0.00;0.00;;;;;12.66;70.14;99507.44;5012979;28;45941;-63
2022/01/04 05:45:57;;;;;;;;;0.00;0.00;;;;;12.65;70.09;99508.41;5020884;28;45393;-64
2022/01/04 05:48:22;;;;;;;;;0.00;0.00;;;;;12.68;69.90;99505.56;5017587;28;45430;-64
2022/01/04 05:50:48;;;;;;;;;0.00;0.00;;;;;12.62;69.66;99499.72;5015632;28;45501;-63
2022/01/04 05:53:14;;;;;;;;;0.00;0.00;;;;;12.62;69.65;99511.28;5020755;28;45373;-63
2022/01/04 05:55:40;;;;;;;;;0.00;0.00;;;;;12.56;69.74;99509.84;5022814;28;45562;-64
2022/01/04 05:58:05;;;;;;;;;0.00;0.00;;;;;12.58;69.99;99518.63;5017096;28;45202;-63
2022/01/04 06:00:31;;;;;;;;;0.00;0.00;;;;;12.56;69.86;99520.56;5016267;28;45233;-64
2022/01/04 06:02:58;;;;;;;;;0.00;0.00;;;;;12.53;69.93;99501.13;5020515;28;45326;-63
2022/01/04 06:05:24;;;;;;;;;0.00;0.00;;;;;12.59;69.71;99506.97;5020752;28;45451;-63
2022/01/04 06:07:49;;;;;;;;;0.00;0.00;;;;;12.60;70.04;99507.84;5002391;28;47026;-64
2022/01/04 06:10:15;;;;;;;;;0.00;0.00;;;;;12.59;69.86;99506.97;5019460;28;45550;-63
2022/01/04 06:15:11;;;;;;;;;1.00;0.00;;;;;12.57;69.60;99500.84;5020736;28;45329;-64
2022/01/04 06:17:41;;;;;;;;;0.00;0.00;;;;;12.53;69.38;99502.00;5020288;28;45372;-63
2022/01/04 06:20:11;;;;;;;;;0.00;0.00;;;;;12.47;69.41;99499.69;5012204;28;45261;-64
2022/01/04 06:22:37;;;;;;;;;0.00;0.00;;;;;12.45;69.61;99504.28;5020469;28;45320;-63
2022/01/04 06:25:05;;;;;;;;;1.25;0.00;;;;;12.50;69.97;99510.22;5033347;28;45301;-63
2022/01/04 06:27:30;;;;;;;;;0.00;0.00;;;;;12.52;69.67;99515.47;5011413;28;45453;-63
2022/01/04 06:29:57;;;;;;;;;0.00;0.00;;;;;12.57;69.63;99527.59;5022748;28;45786;-63
2022/01/04 06:32:23;;;;;;;;;0.00;0.00;;;;;12.61;69.53;99528.28;5021172;28;45436;-63
2022/01/04 06:34:48;;;;;;;;;0.00;0.00;;;;;12.65;69.40;99548.56;5021287;28;45270;-63
2022/01/04 06:37:15;;;;;;;;;0.00;0.00;;;;;12.68;69.19;99536.81;5016318;28;45243;-63
2022/01/04 06:39:41;;;;;;;;;0.00;0.00;;;;;12.70;69.45;99540.28;5017998;28;46949;-63
2022/01/04 06:42:07;;;;;;;;;0.00;0.00;;;;;12.69;69.11;99542.06;5020083;28;45582;-63
2022/01/04 06:44:32;;;;;;;;;0.00;0.00;;;;;12.69;69.36;99549.25;5015757;28;45284;-64
2022/01/04 06:46:58;;;;;;;;;0.00;0.00;;;;;12.69;69.09;99559.97;5017700;28;45466;-64
2022/01/04 06:49:23;;;;;;;;;0.00;0.00;;;;;12.69;69.41;99555.47;5019052;28;45438;-63
2022/01/04 06:51:49;;;;;;;;;0.00;0.00;;;;;12.70;69.05;99551.84;5018007;28;46348;-63
2022/01/04 06:54:18;;;;;;;;;0.00;0.00;;;;;12.69;68.82;99555.47;5017831;28;45367;-63
2022/01/04 06:56:44;;;;;;;;;1.00;1.00;;;;;12.69;69.35;99555.47;5013696;28;45281;-63
2022/01/04 06:59:10;;;;;;;;;0.00;0.00;;;;;12.69;69.38;99568.00;5020154;28;45230;-63
2022/01/04 07:01:37;;;;;;;;;0.00;0.00;;;;;12.71;69.17;99579.47;5020046;28;46239;-64
2022/01/04 07:04:03;;;;;;;;;0.00;0.00;;;;;12.69;69.04;99582.22;5021172;28;45474;-63
2022/01/04 07:06:29;;;;;;;;;0.00;0.00;;;;;12.67;69.08;99589.50;5018080;28;45305;-64
2022/01/04 07:08:55;;;;;;;;;0.25;0.25;;;;;12.67;69.17;99594.00;5008178;28;45504;-64
2022/01/04 07:11:20;;;;;;;;;0.00;0.00;;;;;12.64;69.25;99583.47;5017784;28;48358;-64
2022/01/04 07:13:46;;;;;;;;;2.75;1.00;;;;;12.60;69.08;99578.28;5018206;28;45412;-64
2022/01/04 07:16:11;;;;;;;;;0.00;0.00;;;;;12.60;69.24;99580.97;5019416;28;45403;-64
2022/01/04 07:18:36;;;;;;;;;0.50;0.50;;;;;12.58;68.75;99580.22;5012702;28;45366;-64
2022/01/04 07:21:02;;;;;;;;;0.00;0.00;;;;;12.57;68.66;99583.81;5019599;28;46964;-65
2022/01/04 07:23:28;;;;;;;;;0.00;0.00;;;;;12.52;69.00;99579.72;5018550;28;45448;-65
2022/01/04 07:25:54;;;;;;;;;0.00;0.00;;;;;12.51;68.94;99576.19;5000509;28;45449;-65
2022/01/04 07:28:21;;;;;;;;;0.00;0.00;;;;;12.52;68.92;99577.03;5018164;28;45644;-65
2022/01/04 07:30:46;;;;;;;;;0.00;0.00;;;;;12.51;69.00;99586.88;5017009;28;45507;-65
2022/01/04 07:33:11;;;;;;;;;0.00;0.00;;;;;12.54;69.24;99588.50;5017314;28;45316;-65
2022/01/04 07:35:37;;;;;;;;;0.00;0.00;;;;;12.53;69.39;99597.47;5016737;28;45423;-65
2022/01/04 07:38:03;;;;;;;;;0.25;0.25;;;;;12.49;68.92;99602.16;5014050;28;45586;-65
2022/01/04 07:40:28;;;;;;;;;0.00;0.00;;;;;12.48;68.99;99596.88;4997610;28;47231;-65
2022/01/04 07:42:59;;;;;;;;;1.00;1.00;;;;;12.49;69.09;99603.97;5019095;28;45363;-65
2022/01/04 07:45:25;;;;;;;;;1.00;1.00;;;;;12.48;69.03;99613.81;5017630;28;45370;-65
2022/01/04 07:47:50;;;;;;;;;1.00;1.00;;;;;12.53;69.01;99625.13;5001686;28;45503;-65
2022/01/04 07:50:17;;;;;;;;;1.75;1.75;;;;;12.53;69.12;99619.78;5020709;28;46485;-65
2022/01/04 07:52:43;;;;;;;;;2.00;1.00;;;;;12.53;68.99;99629.59;5019767;28;45560;-65
2022/01/04 07:55:09;;;;;;;;;2.00;1.00;;;;;12.55;69.53;99639.28;5020647;28;46122;-64
2022/01/04 07:57:35;;;;;;;;;2.25;2.25;;;;;12.54;69.16;99634.84;5007875;28;45437;-64
2022/01/04 08:00:00;;;;;;;;;2.00;2.00;;;;;12.54;69.29;99632.19;5020926;28;45732;-64
2022/01/04 08:02:26;;;;;;;;;3.00;2.00;;;;;12.57;68.99;99639.19;4995142;28;45405;-63
2022/01/04 08:04:51;;;;;;;;;2.00;2.00;;;;;12.59;68.99;99662.22;5008642;28;45463;-66
2022/01/04 08:07:16;;;;;;;;;3.25;2.00;;;;;12.62;68.89;99671.06;5022536;28;45369;-65
2022/01/04 08:09:42;;;;;;;;;3.00;3.00;;;;;12.63;68.61;99675.44;5009513;28;45464;-65
2022/01/04 08:12:08;;;;;;;;;1.00;1.00;;;;;12.60;68.65;99680.03;5012684;28;45350;-65
2022/01/04 08:14:33;;;;;;;;;2.00;2.00;;;;;12.59;68.77;99682.78;5010447;28;45387;-65
2022/01/04 08:16:59;;;;;;;;;2.00;2.00;;;;;12.57;68.79;99682.88;5020216;28;45612;-65
2022/01/04 08:19:24;;;;;;;;;1.00;1.00;;;;;12.64;68.08;99701.28;5012008;28;45400;-65
2022/01/04 08:21:49;;;;;;;;;4.50;3.50;;;;;12.63;68.50;99696.84;5014133;28;45447;-65
2022/01/04 08:24:14;;;;;;;;;2.00;2.00;;;;;12.64;68.40;99703.94;5020751;28;45314;-65
2022/01/04 08:26:40;;;;;;;;;1.00;1.00;;;;;12.65;68.61;99697.66;5021329;28;45140;-65
2022/01/04 08:29:05;;;;;;;;;1.75;1.00;;;;;12.65;68.45;99690.47;5012862;28;47160;-65
2022/01/04 08:31:31;;;;;;;;;1.00;1.00;;;;;12.63;68.60;99676.31;5019678;28;45502;-65
2022/01/04 08:33:58;;;;;;;;;2.25;1.00;;;;;12.66;68.39;99677.94;5021284;28;45388;-65
2022/01/04 08:36:28;;;;;;;;;2.00;0.75;;;;;12.65;68.68;99686.94;5013194;28;45702;-65
2022/01/04 08:38:54;;;;;;;;;3.00;0.50;;;;;12.68;68.40;99713.50;5007329;28;45702;-64
2022/01/04 08:41:20;;;;;;;;;0.00;0.00;;;;;12.71;68.42;99708.88;5015894;28;46226;-64
2022/01/04 08:43:46;;;;;;;;;0.00;0.00;;;;;12.76;67.96;99713.94;5002332;28;46285;-64
2022/01/04 08:46:12;;;;;;;;;1.00;1.00;;;;;12.78;67.83;99710.22;5020084;28;45280;-64
2022/01/04 08:48:37;;;;;;;;;0.50;0.50;;;;;12.75;67.88;99715.75;5016174;28;46241;-64
2022/01/04 08:51:02;;;;;;;;;0.00;0.00;;;;;12.75;67.78;99729.16;5008380;28;45407;-65
2022/01/04 08:53:28;;;;;;;;;0.00;0.00;;;;;12.73;67.82;99727.50;5013650;28;45381;-65
2022/01/04 08:55:56;;;;;;;;;0.00;0.00;;;;;12.73;67.82;99735.53;5018127;28;45772;-65
2022/01/04 08:58:22;;;;;;;;;1.00;1.00;;;;;12.68;68.02;99717.06;5017078;28;46376;-65
2022/01/04 09:00:48;;;;;;;;;0.00;0.00;;;;;12.67;67.84;99718.00;5014992;28;45478;-64
2022/01/04 09:03:14;;;;;;;;;1.00;1.00;;;;;12.72;67.90;99723.13;5017953;28;45285;-64
2022/01/04 09:05:39;;;;;;;;;2.00;0.00;;;;;12.74;67.95;99723.88;5014447;28;45316;-64
2022/01/04 09:08:05;;;;;;;;;2.25;1.00;;;;;12.68;67.88;99726.91;5020096;28;46210;-65
2022/01/04 09:10:32;;;;;;;;;0.00;0.00;;;;;12.68;67.95;99737.63;5020809;28;48800;-64
2022/01/04 09:13:07;;;;;;;;;2.25;1.00;;;;;12.70;68.15;99735.72;5010882;28;45566;-65
2022/01/04 09:20:51;;;;;;;;;0.00;0.00;;;;;12.65;68.05;99745.84;5015338;28;45441;-65
2022/01/04 09:23:18;;;;;;;;;0.25;0.25;;;;;12.66;68.30;99748.41;5019238;28;45297;-65
2022/01/04 09:25:47;;;;;;;;;0.50;0.50;;;;;12.67;68.57;99744.78;5023640;28;45518;-65
2022/01/04 09:28:13;;;;;;;;;1.00;1.00;;;;;12.66;68.34;99745.72;5017058;28;46438;-65
2022/01/04 09:30:40;;;;;;;;;3.00;1.75;;;;;12.70;68.34;99741.94;5018038;28;45535;-65
2022/01/04 09:33:06;;;;;;;;;1.00;1.00;;;;;12.70;67.77;99738.41;5016434;28;45429;-65
2022/01/04 09:35:33;;;;;;;;;1.25;1.25;;;;;12.70;68.25;99743.78;5019823;28;45374;-65
2022/01/04 09:37:58;;;;;;;;;2.00;2.00;;;;;12.68;68.21;99738.50;5018432;28;46621;-65
2022/01/04 09:40:23;;;;;;;;;1.00;1.00;;;;;12.67;68.08;99735.91;5013816;28;45337;-65
2022/01/04 09:42:49;;;;;;;;;1.00;1.00;;;;;12.69;68.25;99742.03;5019088;28;45610;-65
2022/01/04 09:45:15;;;;;;;;;2.00;2.00;;;;;12.68;68.12;99729.56;5020481;28;45511;-65
2022/01/04 09:47:41;;;;;;;;;1.00;1.00;;;;;12.72;68.57;99733.81;5018426;28;45402;-64
2022/01/04 09:50:10;;;;;;;;;1.50;1.00;;;;;12.65;68.08;99724.44;5017085;28;46076;-65
2022/01/04 09:52:39;;;;;;;;;1.00;1.00;;;;;12.63;68.10;99745.94;5011335;28;45381;-64
2022/01/04 09:55:05;;;;;;;;;2.75;2.25;;;;;12.68;68.36;99764.38;5019896;28;45496;-65
2022/01/04 09:57:31;;;;;;;;;3.00;3.00;;;;;12.66;68.60;99751.09;5018522;28;45568;-64
2022/01/04 09:59:56;;;;;;;;;2.00;2.00;;;;;12.71;68.37;99757.06;5017872;28;45678;-65
2022/01/04 10:02:21;;;;;;;;;3.00;1.00;;;;;12.68;68.32;99767.94;5014479;28;45460;-64
2022/01/04 10:04:47;;;;;;;;;1.75;1.00;;;;;12.73;68.31;99773.91;5019087;28;45459;-64
2022/01/04 10:07:13;;;;;;;;;1.00;1.00;;;;;12.73;68.24;99776.59;5000736;28;46931;-65
2022/01/04 10:09:45;;;;;;;;;1.50;1.50;;;;;12.74;68.33;99772.09;5018083;28;45436;-64
2022/01/04 10:12:23;;;;;;;;;2.00;2.00;;;;;12.78;68.69;99789.72;5017773;28;45377;-65
2022/01/04 10:14:51;;;;;;;;;2.00;2.00;;;;;12.77;67.91;99785.31;5014677;28;45450;-65
2022/01/04 10:17:23;;;;;;;;;3.00;2.00;;;;;12.77;68.17;99791.50;5017337;28;45400;-65
2022/01/04 10:19:53;;;;;;;;;3.00;1.50;;;;;12.79;68.31;99799.47;5014013;28;45851;-65
2022/01/04 10:22:18;;;;;;;;;2.00;2.00;;;;;12.79;68.35;99794.97;5023516;28;45438;-65
2022/01/04 10:24:45;;;;;;;;;3.25;3.25;;;;;12.79;68.32;99802.13;5017620;28;45812;-65
2022/01/04 10:27:28;;;;;;;;;5.00;3.00;;;;;12.78;68.24;99795.06;5014327;28;45495;-65
2022/01/04 10:30:13;;;;;;;;;2.50;2.50;;;;;12.79;68.23;99794.97;5014876;28;45561;-65
2022/01/04 10:32:45;;;;;;;;;3.50;3.50;;;;;12.76;68.44;99780.88;5007260;28;45605;-65
2022/01/04 10:35:10;;;;;;;;;3.00;3.00;;;;;12.70;68.45;99787.47;5010777;28;45407;-65
2022/01/04 10:37:38;;;;;;;;;3.00;3.00;;;;;12.67;68.40;99779.59;5006611;28;46136;-65
2022/01/04 10:40:07;;;;;;;;;5.25;4.00;;;;;12.67;68.69;99784.09;5016291;28;46133;-65
2022/01/04 10:42:32;;;;;;;;;3.75;3.25;;;;;12.67;69.00;99779.59;5011481;28;45463;-66
2022/01/04 10:44:57;;;;;;;;;3.50;3.00;;;;;12.67;68.99;99771.56;5018637;28;45696;-66
2022/01/04 10:47:27;;;;;;;;;4.00;3.25;;;;;12.63;68.54;99753.06;5015156;28;47114;-68
2022/01/04 10:49:52;;;;;;;;;5.00;4.00;;;;;12.58;68.49;99751.53;5014945;28;46846;-65
2022/01/04 10:52:22;;;;;;;;;2.00;2.00;;;;;12.58;68.79;99766.75;5021746;28;45336;-65
2022/01/04 10:55:14;;;;;;;;;2.00;2.00;;;;;12.66;69.03;99774.31;5014610;28;45594;-66
2022/01/04 10:57:39;;;;;;;;;1.75;1.75;;;;;12.65;68.87;99775.28;5014330;28;47054;-65
2022/01/04 11:00:22;;;;;;;;;1.00;1.00;;;;;12.66;69.06;99771.66;5013269;28;45681;-65
2022/01/04 11:02:48;;;;;;;;;1.50;1.50;;;;;12.67;68.95;99776.91;5017922;28;45423;-65
2022/01/04 11:05:15;;;;;;;;;2.00;2.00;;;;;12.67;68.89;99766.22;5016620;28;45389;-65
2022/01/04 11:08:01;;;;;;;;;2.25;1.75;;;;;12.66;69.00;99763.63;5018153;28;45542;-65
2022/01/04 11:10:29;;;;;;;;;2.25;2.00;;;;;12.68;69.01;99765.28;5013463;28;45573;-65
2022/01/04 11:12:57;;;;;;;;;2.00;2.00;;;;;12.74;68.97;99764.03;5015220;28;45318;-64
2022/01/04 11:15:23;;;;;;;;;2.00;2.00;;;;;12.74;69.30;99762.22;5017991;28;45342;-65
2022/01/04 11:17:49;;;;;;;;;1.75;1.75;;;;;12.73;69.17;99760.50;5008502;28;48079;-65
2022/01/04 11:20:14;;;;;;;;;2.00;1.00;;;;;12.75;68.96;99758.59;5016226;28;45495;-65
2022/01/04 11:22:40;;;;;;;;;1.25;1.00;;;;;12.79;68.85;99768.19;5017840;28;45524;-65
2022/01/04 11:25:07;;;;;;;;;2.75;1.75;;;;;12.81;68.77;99761.88;5023985;28;45786;-65
2022/01/04 11:27:36;;;;;;;;;3.00;2.00;;;;;12.78;68.83;99763.78;5022384;28;45740;-65
2022/01/04 11:30:06;;;;;;;;;2.00;2.00;;;;;12.82;69.10;99774.34;5013737;28;45358;-65
2022/01/04 11:32:36;;;;;;;;;1.75;1.00;;;;;12.82;68.96;99767.16;5023188;28;45599;-65
2022/01/04 11:35:12;;;;;;;;;2.75;2.00;;;;;12.83;69.08;99779.59;5022743;28;45508;-65
2022/01/04 11:37:41;;;;;;;;;1.50;1.00;;;;;12.83;69.13;99768.91;5027477;28;46166;-65
2022/01/04 11:40:26;;;;;;;;;3.00;3.00;;;;;12.80;69.08;99769.06;5026677;28;45411;-65